sensor_id;sensor_type;location;lat;lon;timestamp;temperature;humidity
2112;DHT22;1062;52.538;13.400;2023-01-16T00:01:49;4.80;99.90
2112;DHT22;1062;52.538;13.400;2023-01-16T00:04:15;4.90;99.90
2112;DHT22;1062;52.538;13.400;2023-01-16T00:06:41;4.90;99.90
2112;DHT22;1062;52.538;13.400;2023-01-16T00:09:06;5.00;99.90
2112;DHT22;1062;52.538;13.400;2023-01-16T00:11:32;5.00;99.90
2112;DHT22;1062;52.538;13.400;2023-01-16T00:13:58;5.10;99.90
2112;DHT22;1062;52.538;13.400;2023-01-16T00:16:25;5.20;99.90
2112;DHT22;1062;52.538;13.400;2023-01-16T00:18:50;5.20;99.90
2112;DHT22;1062;52.538;13.400;2023-01-16T00:21:16;5.20;99.90
2112;DHT22;1062;52.538;13.400;2023-01-16T00:23:42;5.20;99.90
2112;DHT22;1062;52.538;13.400;2023-01-16T00:26:08;5.20;99.90
2112;DHT22;1062;52.538;13.400;2023-01-16T00:28:35;5.30;99.90
2112;DHT22;1062;52.538;13.400;2023-01-16T00:31:03;5.30;99.90
2112;DHT22;1062;52.538;13.400;2023-01-16T00:33:30;5.30;99.90
2112;DHT22;1062;52.538;13.400;2023-01-16T00:35:55;5.40;99.90
2112;DHT22;1062;52.538;13.400;2023-01-16T00:38:21;5.40;99.90
2112;DHT22;1062;52.538;13.400;2023-01-16T00:40:47;5.40;99.90
2112;DHT22;1062;52.538;13.400;2023-01-16T00:43:12;5.40;99.90
2112;DHT22;1062;52.538;13.400;2023-01-16T00:45:38;5.40;99.90
2112;DHT22;1062;52.538;13.400;2023-01-16T00:48:05;5.40;99.90
2112;DHT22;1062;52.538;13.400;2023-01-16T00:50:31;5.40;99.90
2112;DHT22;1062;52.538;13.400;2023-01-16T00:52:56;5.40;99.90
2112;DHT22;1062;52.538;13.400;2023-01-16T00:55:22;5.40;99.90
2112;DHT22;1062;52.538;13.400;2023-01-16T00:57:48;5.40;99.90
2112;DHT22;1062;52.538;13.400;2023-01-16T01:00:15;5.40;99.90
2112;DHT22;1062;52.538;13.400;2023-01-16T01:02:41;5.40;99.90
2112;DHT22;1062;52.538;13.400;2023-01-16T01:05:07;5.40;99.90
2112;DHT22;1062;52.538;13.400;2023-01-16T01:07:33;5.40;99.90
2112;DHT22;1062;52.538;13.400;2023-01-16T01:09:58;5.40;99.90
2112;DHT22;1062;52.538;13.400;2023-01-16T01:12:24;5.40;99.90
2112;DHT22;1062;52.538;13.400;2023-01-16T01:14:49;5.40;99.90
2112;DHT22;1062;52.538;13.400;2023-01-16T01:17:15;5.40;99.90
2112;DHT22;1062;52.538;13.400;2023-01-16T01:19:41;5.30;99.90
2112;DHT22;1062;52.538;13.400;2023-01-16T01:22:06;5.30;99.90
2112;DHT22;1062;52.538;13.400;2023-01-16T01:24:32;5.30;99.90
2112;DHT22;1062;52.538;13.400;2023-01-16T01:26:58;5.20;99.90
2112;DHT22;1062;52.538;13.400;2023-01-16T01:29:23;5.20;99.90
2112;DHT22;1062;52.538;13.400;2023-01-16T01:31:49;5.10;99.90
2112;DHT22;1062;52.538;13.400;2023-01-16T01:34:14;5.10;99.90
2112;DHT22;1062;52.538;13.400;2023-01-16T01:36:41;5.00;99.90
2112;DHT22;1062;52.538;13.400;2023-01-16T01:39:07;4.90;99.90
2112;DHT22;1062;52.538;13.400;2023-01-16T01:41:33;4.80;99.90
2112;DHT22;1062;52.538;13.400;2023-01-16T01:43:58;4.70;99.90
2112;DHT22;1062;52.538;13.400;2023-01-16T01:46:43;4.60;99.90
2112;DHT22;1062;52.538;13.400;2023-01-16T01:49:20;4.60;99.90
2112;DHT22;1062;52.538;13.400;2023-01-16T01:51:49;4.50;99.90
2112;DHT22;1062;52.538;13.400;2023-01-16T01:54:19;4.50;99.90
2112;DHT22;1062;52.538;13.400;2023-01-16T01:56:53;4.50;99.90
2112;DHT22;1062;52.538;13.400;2023-01-16T01:59:25;4.50;99.90
2112;DHT22;1062;52.538;13.400;2023-01-16T02:01:53;4.50;99.90
2112;DHT22;1062;52.538;13.400;2023-01-16T02:04:24;4.60;99.90
2112;DHT22;1062;52.538;13.400;2023-01-16T02:06:53;4.60;99.90
2112;DHT22;1062;52.538;13.400;2023-01-16T02:09:21;4.60;99.90
2112;DHT22;1062;52.538;13.400;2023-01-16T02:11:55;4.70;99.90
2112;DHT22;1062;52.538;13.400;2023-01-16T02:14:22;4.70;99.90
2112;DHT22;1062;52.538;13.400;2023-01-16T02:16:54;4.70;99.90
2112;DHT22;1062;52.538;13.400;2023-01-16T02:20:06;4.70;99.90
2112;DHT22;1062;52.538;13.400;2023-01-16T02:33:50;4.70;99.90
2112;DHT22;1062;52.538;13.400;2023-01-16T02:39:02;4.80;99.90
2112;DHT22;1062;52.538;13.400;2023-01-16T02:41:38;4.80;99.90
2112;DHT22;1062;52.538;13.400;2023-01-16T02:44:40;4.80;99.90
2112;DHT22;1062;52.538;13.400;2023-01-16T02:54:59;4.80;99.90
2112;DHT22;1062;52.538;13.400;2023-01-16T02:57:38;4.80;99.90
2112;DHT22;1062;52.538;13.400;2023-01-16T03:00:06;4.80;99.90
2112;DHT22;1062;52.538;13.400;2023-01-16T03:02:33;4.80;99.90
2112;DHT22;1062;52.538;13.400;2023-01-16T03:04:59;4.80;99.90
2112;DHT22;1062;52.538;13.400;2023-01-16T03:16:01;4.80;99.90
2112;DHT22;1062;52.538;13.400;2023-01-16T03:23:54;4.60;99.90
2112;DHT22;1062;52.538;13.400;2023-01-16T03:31:49;4.40;99.90
2112;DHT22;1062;52.538;13.400;2023-01-16T03:39:35;4.30;99.90
2112;DHT22;1062;52.538;13.400;2023-01-16T03:42:08;4.40;99.90
2112;DHT22;1062;52.538;13.400;2023-01-16T03:44:40;4.40;99.90
2112;DHT22;1062;52.538;13.400;2023-01-16T03:47:12;4.30;99.90
2112;DHT22;1062;52.538;13.400;2023-01-16T03:49:43;4.30;99.90
2112;DHT22;1062;52.538;13.400;2023-01-16T03:52:12;4.30;99.90
2112;DHT22;1062;52.538;13.400;2023-01-16T03:54:50;4.30;99.90
2112;DHT22;1062;52.538;13.400;2023-01-16T03:57:24;4.20;99.90
2112;DHT22;1062;52.538;13.400;2023-01-16T03:59:52;4.20;99.90
2112;DHT22;1062;52.538;13.400;2023-01-16T04:07:46;4.20;99.90
2112;DHT22;1062;52.538;13.400;2023-01-16T04:10:33;4.20;99.90
2112;DHT22;1062;52.538;13.400;2023-01-16T04:13:12;4.20;99.90
2112;DHT22;1062;52.538;13.400;2023-01-16T04:15:43;4.30;99.90
2112;DHT22;1062;52.538;13.400;2023-01-16T04:18:09;4.20;99.90
2112;DHT22;1062;52.538;13.400;2023-01-16T04:20:36;4.20;99.90
2112;DHT22;1062;52.538;13.400;2023-01-16T04:23:02;4.20;99.90
2112;DHT22;1062;52.538;13.400;2023-01-16T04:25:28;4.10;99.90
2112;DHT22;1062;52.538;13.400;2023-01-16T04:27:53;4.00;99.90
2112;DHT22;1062;52.538;13.400;2023-01-16T04:30:19;3.90;99.90
2112;DHT22;1062;52.538;13.400;2023-01-16T04:32:45;3.90;99.90
2112;DHT22;1062;52.538;13.400;2023-01-16T04:35:11;3.90;99.90
2112;DHT22;1062;52.538;13.400;2023-01-16T04:37:37;3.90;99.90
2112;DHT22;1062;52.538;13.400;2023-01-16T04:40:03;3.80;99.90
2112;DHT22;1062;52.538;13.400;2023-01-16T04:42:29;3.80;99.90
2112;DHT22;1062;52.538;13.400;2023-01-16T04:44:54;3.70;99.90
2112;DHT22;1062;52.538;13.400;2023-01-16T04:47:20;3.70;99.90
2112;DHT22;1062;52.538;13.400;2023-01-16T04:49:45;3.70;99.90
2112;DHT22;1062;52.538;13.400;2023-01-16T04:52:12;3.70;99.90
2112;DHT22;1062;52.538;13.400;2023-01-16T04:54:38;3.60;99.90
2112;DHT22;1062;52.538;13.400;2023-01-16T04:57:04;3.60;99.90
2112;DHT22;1062;52.538;13.400;2023-01-16T04:59:30;3.50;99.90
2112;DHT22;1062;52.538;13.400;2023-01-16T05:01:56;3.50;99.90
2112;DHT22;1062;52.538;13.400;2023-01-16T05:04:21;3.50;99.90
2112;DHT22;1062;52.538;13.400;2023-01-16T05:06:47;3.50;99.90
2112;DHT22;1062;52.538;13.400;2023-01-16T05:09:13;3.50;99.90
2112;DHT22;1062;52.538;13.400;2023-01-16T05:11:39;3.50;99.90
2112;DHT22;1062;52.538;13.400;2023-01-16T05:14:04;3.50;99.90
2112;DHT22;1062;52.538;13.400;2023-01-16T05:16:36;3.50;99.90
2112;DHT22;1062;52.538;13.400;2023-01-16T05:19:02;3.60;99.90
2112;DHT22;1062;52.538;13.400;2023-01-16T05:21:28;3.60;99.90
2112;DHT22;1062;52.538;13.400;2023-01-16T05:23:53;3.60;99.90
2112;DHT22;1062;52.538;13.400;2023-01-16T05:26:19;3.60;99.90
2112;DHT22;1062;52.538;13.400;2023-01-16T05:28:44;3.60;99.90
2112;DHT22;1062;52.538;13.400;2023-01-16T05:31:10;3.60;99.90
2112;DHT22;1062;52.538;13.400;2023-01-16T05:33:36;3.70;99.90
2112;DHT22;1062;52.538;13.400;2023-01-16T05:36:02;3.70;99.90
2112;DHT22;1062;52.538;13.400;2023-01-16T05:38:28;3.70;99.90
2112;DHT22;1062;52.538;13.400;2023-01-16T05:40:53;3.70;99.90
2112;DHT22;1062;52.538;13.400;2023-01-16T05:43:19;3.80;99.90
2112;DHT22;1062;52.538;13.400;2023-01-16T05:45:45;3.80;99.90
2112;DHT22;1062;52.538;13.400;2023-01-16T05:48:10;3.80;99.90
2112;DHT22;1062;52.538;13.400;2023-01-16T05:50:36;3.90;99.90
2112;DHT22;1062;52.538;13.400;2023-01-16T05:53:02;3.90;99.90
2112;DHT22;1062;52.538;13.400;2023-01-16T05:55:27;4.00;99.90
2112;DHT22;1062;52.538;13.400;2023-01-16T05:57:53;4.00;99.90
2112;DHT22;1062;52.538;13.400;2023-01-16T06:00:19;4.00;99.90
2112;DHT22;1062;52.538;13.400;2023-01-16T06:02:44;4.10;99.90
2112;DHT22;1062;52.538;13.400;2023-01-16T06:05:13;4.00;99.90
2112;DHT22;1062;52.538;13.400;2023-01-16T06:07:39;4.10;99.90
2112;DHT22;1062;52.538;13.400;2023-01-16T06:10:08;4.00;99.90
2112;DHT22;1062;52.538;13.400;2023-01-16T06:12:33;4.00;99.90
2112;DHT22;1062;52.538;13.400;2023-01-16T06:14:59;4.00;99.90
2112;DHT22;1062;52.538;13.400;2023-01-16T06:17:25;4.00;99.90
2112;DHT22;1062;52.538;13.400;2023-01-16T06:19:50;4.00;99.90
2112;DHT22;1062;52.538;13.400;2023-01-16T06:22:16;4.00;99.90
2112;DHT22;1062;52.538;13.400;2023-01-16T06:24:42;4.00;99.90
2112;DHT22;1062;52.538;13.400;2023-01-16T06:27:07;3.90;99.90
2112;DHT22;1062;52.538;13.400;2023-01-16T06:29:33;4.00;99.90
2112;DHT22;1062;52.538;13.400;2023-01-16T06:31:59;4.00;99.90
2112;DHT22;1062;52.538;13.400;2023-01-16T06:34:24;4.00;99.90
2112;DHT22;1062;52.538;13.400;2023-01-16T06:36:51;4.00;99.90
2112;DHT22;1062;52.538;13.400;2023-01-16T06:39:17;4.00;99.90
2112;DHT22;1062;52.538;13.400;2023-01-16T06:41:42;4.00;99.90
2112;DHT22;1062;52.538;13.400;2023-01-16T06:44:09;4.00;99.90
2112;DHT22;1062;52.538;13.400;2023-01-16T06:46:34;4.00;99.90
2112;DHT22;1062;52.538;13.400;2023-01-16T06:49:00;4.00;99.90
2112;DHT22;1062;52.538;13.400;2023-01-16T06:51:26;3.90;99.90
2112;DHT22;1062;52.538;13.400;2023-01-16T06:53:51;3.90;99.90
2112;DHT22;1062;52.538;13.400;2023-01-16T06:56:17;3.90;99.90
2112;DHT22;1062;52.538;13.400;2023-01-16T06:58:43;4.00;99.90
2112;DHT22;1062;52.538;13.400;2023-01-16T07:01:09;4.00;99.90
2112;DHT22;1062;52.538;13.400;2023-01-16T07:03:34;4.00;99.90
2112;DHT22;1062;52.538;13.400;2023-01-16T07:06:00;4.00;99.90
2112;DHT22;1062;52.538;13.400;2023-01-16T07:08:25;4.00;99.90
2112;DHT22;1062;52.538;13.400;2023-01-16T07:10:51;4.00;99.90
2112;DHT22;1062;52.538;13.400;2023-01-16T07:13:17;4.00;99.90
2112;DHT22;1062;52.538;13.400;2023-01-16T07:15:46;4.00;99.90
2112;DHT22;1062;52.538;13.400;2023-01-16T07:18:31;4.10;99.90
2112;DHT22;1062;52.538;13.400;2023-01-16T07:21:35;4.10;99.90
2112;DHT22;1062;52.538;13.400;2023-01-16T07:24:22;4.10;99.90
2112;DHT22;1062;52.538;13.400;2023-01-16T07:26:52;4.10;99.90
2112;DHT22;1062;52.538;13.400;2023-01-16T07:29:19;4.10;99.90
2112;DHT22;1062;52.538;13.400;2023-01-16T07:31:44;4.10;99.90
2112;DHT22;1062;52.538;13.400;2023-01-16T07:34:10;4.10;99.90
2112;DHT22;1062;52.538;13.400;2023-01-16T07:36:35;4.10;99.90
2112;DHT22;1062;52.538;13.400;2023-01-16T07:39:01;4.10;99.90
2112;DHT22;1062;52.538;13.400;2023-01-16T07:41:27;4.10;99.90
2112;DHT22;1062;52.538;13.400;2023-01-16T07:43:52;4.00;99.90
2112;DHT22;1062;52.538;13.400;2023-01-16T07:46:18;4.00;99.90
2112;DHT22;1062;52.538;13.400;2023-01-16T07:48:43;4.00;99.90
2112;DHT22;1062;52.538;13.400;2023-01-16T07:51:09;4.10;99.90
2112;DHT22;1062;52.538;13.400;2023-01-16T07:53:34;4.00;99.90
2112;DHT22;1062;52.538;13.400;2023-01-16T07:56:01;3.90;99.90
2112;DHT22;1062;52.538;13.400;2023-01-16T07:58:28;4.10;99.90
2112;DHT22;1062;52.538;13.400;2023-01-16T08:00:55;4.10;99.90
2112;DHT22;1062;52.538;13.400;2023-01-16T08:03:22;4.10;99.90
2112;DHT22;1062;52.538;13.400;2023-01-16T08:05:48;4.10;99.90
2112;DHT22;1062;52.538;13.400;2023-01-16T08:08:16;4.00;99.90
2112;DHT22;1062;52.538;13.400;2023-01-16T08:10:43;3.90;99.90
2112;DHT22;1062;52.538;13.400;2023-01-16T08:13:09;4.00;99.90
2112;DHT22;1062;52.538;13.400;2023-01-16T08:15:34;4.00;99.90
2112;DHT22;1062;52.538;13.400;2023-01-16T08:18:00;4.10;99.90
2112;DHT22;1062;52.538;13.400;2023-01-16T08:20:26;4.10;99.90
2112;DHT22;1062;52.538;13.400;2023-01-16T08:22:52;4.20;99.90
2112;DHT22;1062;52.538;13.400;2023-01-16T08:25:20;4.20;99.90
2112;DHT22;1062;52.538;13.400;2023-01-16T08:27:46;4.30;99.90
2112;DHT22;1062;52.538;13.400;2023-01-16T08:30:13;4.30;99.90
2112;DHT22;1062;52.538;13.400;2023-01-16T08:32:39;4.40;99.90
2112;DHT22;1062;52.538;13.400;2023-01-16T08:35:05;4.50;99.90
2112;DHT22;1062;52.538;13.400;2023-01-16T08:37:32;4.60;99.90
2112;DHT22;1062;52.538;13.400;2023-01-16T08:39:58;4.60;99.90
2112;DHT22;1062;52.538;13.400;2023-01-16T08:42:23;4.60;99.90
2112;DHT22;1062;52.538;13.400;2023-01-16T08:45:10;4.60;99.90
2112;DHT22;1062;52.538;13.400;2023-01-16T08:47:54;4.70;99.90
2112;DHT22;1062;52.538;13.400;2023-01-16T08:50:39;4.70;99.90
2112;DHT22;1062;52.538;13.400;2023-01-16T08:53:23;4.70;99.90
2112;DHT22;1062;52.538;13.400;2023-01-16T08:55:49;4.70;99.90
2112;DHT22;1062;52.538;13.400;2023-01-16T08:58:15;4.80;99.90
2112;DHT22;1062;52.538;13.400;2023-01-16T09:00:41;5.20;99.90
2112;DHT22;1062;52.538;13.400;2023-01-16T09:03:07;5.50;99.90
2112;DHT22;1062;52.538;13.400;2023-01-16T09:05:32;5.70;99.90
2112;DHT22;1062;52.538;13.400;2023-01-16T09:07:58;6.50;99.90
2112;DHT22;1062;52.538;13.400;2023-01-16T09:10:24;6.60;99.90
2112;DHT22;1062;52.538;13.400;2023-01-16T09:12:50;6.70;99.90
2112;DHT22;1062;52.538;13.400;2023-01-16T09:15:34;6.30;99.90
2112;DHT22;1062;52.538;13.400;2023-01-16T09:18:00;6.10;99.90
2112;DHT22;1062;52.538;13.400;2023-01-16T09:20:25;6.20;99.90
2112;DHT22;1062;52.538;13.400;2023-01-16T09:23:02;6.10;99.90
2112;DHT22;1062;52.538;13.400;2023-01-16T09:25:29;5.80;99.90
2112;DHT22;1062;52.538;13.400;2023-01-16T09:27:55;5.70;99.90
2112;DHT22;1062;52.538;13.400;2023-01-16T09:30:21;5.40;99.90
2112;DHT22;1062;52.538;13.400;2023-01-16T09:32:47;5.30;99.90
2112;DHT22;1062;52.538;13.400;2023-01-16T09:35:13;5.30;99.90
2112;DHT22;1062;52.538;13.400;2023-01-16T09:37:39;5.20;99.90
2112;DHT22;1062;52.538;13.400;2023-01-16T09:40:10;5.10;99.90
2112;DHT22;1062;52.538;13.400;2023-01-16T09:45:58;5.10;99.90
2112;DHT22;1062;52.538;13.400;2023-01-16T09:48:37;5.10;99.90
2112;DHT22;1062;52.538;13.400;2023-01-16T09:51:14;5.10;99.90
2112;DHT22;1062;52.538;13.400;2023-01-16T09:56:34;5.10;99.90
2112;DHT22;1062;52.538;13.400;2023-01-16T09:59:36;5.10;99.90
2112;DHT22;1062;52.538;13.400;2023-01-16T10:04:34;5.20;99.90
2112;DHT22;1062;52.538;13.400;2023-01-16T10:07:29;5.20;99.90
2112;DHT22;1062;52.538;13.400;2023-01-16T10:16:02;5.30;99.90
2112;DHT22;1062;52.538;13.400;2023-01-16T10:18:47;5.40;99.90
2112;DHT22;1062;52.538;13.400;2023-01-16T10:24:09;5.50;99.90
2112;DHT22;1062;52.538;13.400;2023-01-16T10:29:18;5.60;99.90
2112;DHT22;1062;52.538;13.400;2023-01-16T10:35:05;5.70;99.90
2112;DHT22;1062;52.538;13.400;2023-01-16T10:37:33;5.80;99.90
2112;DHT22;1062;52.538;13.400;2023-01-16T10:40:26;5.80;99.90
2112;DHT22;1062;52.538;13.400;2023-01-16T10:43:00;5.90;99.90
2112;DHT22;1062;52.538;13.400;2023-01-16T10:45:45;6.00;99.90
2112;DHT22;1062;52.538;13.400;2023-01-16T10:48:46;6.00;99.90
2112;DHT22;1062;52.538;13.400;2023-01-16T10:51:31;6.10;99.90
2112;DHT22;1062;52.538;13.400;2023-01-16T10:53:56;6.10;99.90
2112;DHT22;1062;52.538;13.400;2023-01-16T10:56:24;6.20;99.90
2112;DHT22;1062;52.538;13.400;2023-01-16T10:58:50;6.20;99.90
2112;DHT22;1062;52.538;13.400;2023-01-16T11:01:18;6.30;99.90
2112;DHT22;1062;52.538;13.400;2023-01-16T11:03:49;6.30;99.90
2112;DHT22;1062;52.538;13.400;2023-01-16T11:06:25;6.30;99.90
2112;DHT22;1062;52.538;13.400;2023-01-16T11:09:02;6.30;99.90
2112;DHT22;1062;52.538;13.400;2023-01-16T11:11:29;6.30;99.90
2112;DHT22;1062;52.538;13.400;2023-01-16T11:14:23;6.40;99.90
2112;DHT22;1062;52.538;13.400;2023-01-16T11:17:33;6.40;99.90
2112;DHT22;1062;52.538;13.400;2023-01-16T11:20:27;6.60;99.90
2112;DHT22;1062;52.538;13.400;2023-01-16T11:22:58;6.60;99.90
2112;DHT22;1062;52.538;13.400;2023-01-16T11:25:26;6.70;99.90
2112;DHT22;1062;52.538;13.400;2023-01-16T11:27:54;6.70;99.90
2112;DHT22;1062;52.538;13.400;2023-01-16T11:30:28;6.70;99.90
2112;DHT22;1062;52.538;13.400;2023-01-16T11:32:55;6.70;99.90
2112;DHT22;1062;52.538;13.400;2023-01-16T11:35:29;6.80;99.90
2112;DHT22;1062;52.538;13.400;2023-01-16T11:37:57;6.80;99.90
2112;DHT22;1062;52.538;13.400;2023-01-16T11:40:25;6.90;99.90
2112;DHT22;1062;52.538;13.400;2023-01-16T11:42:56;6.90;99.90
2112;DHT22;1062;52.538;13.400;2023-01-16T11:45:49;7.00;99.90
2112;DHT22;1062;52.538;13.400;2023-01-16T11:48:40;7.10;99.90
2112;DHT22;1062;52.538;13.400;2023-01-16T11:51:11;7.20;99.90
2112;DHT22;1062;52.538;13.400;2023-01-16T11:53:37;7.20;99.90
2112;DHT22;1062;52.538;13.400;2023-01-16T11:59:14;7.20;99.90
2112;DHT22;1062;52.538;13.400;2023-01-16T12:05:13;7.20;99.90
2112;DHT22;1062;52.538;13.400;2023-01-16T12:21:52;7.40;99.90
2112;DHT22;1062;52.538;13.400;2023-01-16T12:35:06;7.40;99.90
2112;DHT22;1062;52.538;13.400;2023-01-16T12:45:52;7.50;99.90
2112;DHT22;1062;52.538;13.400;2023-01-16T12:48:55;7.60;99.90
2112;DHT22;1062;52.538;13.400;2023-01-16T12:54:11;7.60;99.90
2112;DHT22;1062;52.538;13.400;2023-01-16T12:56:57;7.70;99.90
2112;DHT22;1062;52.538;13.400;2023-01-16T12:59:38;7.70;99.90
2112;DHT22;1062;52.538;13.400;2023-01-16T13:03:15;7.70;99.90
2112;DHT22;1062;52.538;13.400;2023-01-16T13:05:32;7.80;99.90
2112;DHT22;1062;52.538;13.400;2023-01-16T13:10:42;7.70;99.90
2112;DHT22;1062;52.538;13.400;2023-01-16T13:13:29;7.60;99.90
2112;DHT22;1062;52.538;13.400;2023-01-16T13:19:08;7.60;99.90
2112;DHT22;1062;52.538;13.400;2023-01-16T13:21:52;7.70;99.90
2112;DHT22;1062;52.538;13.400;2023-01-16T13:24:43;7.60;99.90
2112;DHT22;1062;52.538;13.400;2023-01-16T13:27:19;7.60;99.90
2112;DHT22;1062;52.538;13.400;2023-01-16T13:30:03;7.60;99.90
2112;DHT22;1062;52.538;13.400;2023-01-16T13:32:33;7.60;99.90
2112;DHT22;1062;52.538;13.400;2023-01-16T13:35:45;7.60;99.90
2112;DHT22;1062;52.538;13.400;2023-01-16T13:40:53;7.50;99.90
2112;DHT22;1062;52.538;13.400;2023-01-16T13:43:42;7.50;99.90
2112;DHT22;1062;52.538;13.400;2023-01-16T13:46:27;7.50;99.90
2112;DHT22;1062;52.538;13.400;2023-01-16T13:48:56;7.50;99.90
2112;DHT22;1062;52.538;13.400;2023-01-16T13:51:22;7.50;99.90
2112;DHT22;1062;52.538;13.400;2023-01-16T13:53:56;7.40;99.90
2112;DHT22;1062;52.538;13.400;2023-01-16T13:56:25;7.40;99.90
2112;DHT22;1062;52.538;13.400;2023-01-16T13:59:04;7.40;99.90
2112;DHT22;1062;52.538;13.400;2023-01-16T14:01:53;7.40;99.90
2112;DHT22;1062;52.538;13.400;2023-01-16T14:06:52;7.40;99.90
2112;DHT22;1062;52.538;13.400;2023-01-16T14:15:52;7.30;99.90
2112;DHT22;1062;52.538;13.400;2023-01-16T14:19:23;7.20;99.90
2112;DHT22;1062;52.538;13.400;2023-01-16T14:21:48;7.20;99.90
2112;DHT22;1062;52.538;13.400;2023-01-16T14:24:43;7.20;99.90
2112;DHT22;1062;52.538;13.400;2023-01-16T14:27:22;7.10;99.90
2112;DHT22;1062;52.538;13.400;2023-01-16T14:29:49;7.00;99.90
2112;DHT22;1062;52.538;13.400;2023-01-16T14:32:19;7.00;99.90
2112;DHT22;1062;52.538;13.400;2023-01-16T14:34:54;6.90;99.90
2112;DHT22;1062;52.538;13.400;2023-01-16T14:37:32;6.90;99.90
2112;DHT22;1062;52.538;13.400;2023-01-16T14:40:18;6.90;99.90
2112;DHT22;1062;52.538;13.400;2023-01-16T14:42:57;6.80;99.90
2112;DHT22;1062;52.538;13.400;2023-01-16T14:57:57;6.60;99.90
2112;DHT22;1062;52.538;13.400;2023-01-16T15:00:24;6.60;99.90
2112;DHT22;1062;52.538;13.400;2023-01-16T15:02:55;6.60;99.90
2112;DHT22;1062;52.538;13.400;2023-01-16T15:05:30;6.50;99.90
2112;DHT22;1062;52.538;13.400;2023-01-16T15:08:17;6.50;99.90
2112;DHT22;1062;52.538;13.400;2023-01-16T15:10:45;6.40;99.90
2112;DHT22;1062;52.538;13.400;2023-01-16T15:15:59;6.30;99.90
2112;DHT22;1062;52.538;13.400;2023-01-16T15:18:26;6.30;99.90
2112;DHT22;1062;52.538;13.400;2023-01-16T15:21:14;6.20;99.90
2112;DHT22;1062;52.538;13.400;2023-01-16T15:23:58;6.20;99.90
2112;DHT22;1062;52.538;13.400;2023-01-16T15:31:27;6.10;99.90
2112;DHT22;1062;52.538;13.400;2023-01-16T15:36:36;6.10;99.90
2112;DHT22;1062;52.538;13.400;2023-01-16T15:39:21;6.00;99.90
2112;DHT22;1062;52.538;13.400;2023-01-16T15:41:54;6.00;99.90
2112;DHT22;1062;52.538;13.400;2023-01-16T15:44:42;5.90;99.90
2112;DHT22;1062;52.538;13.400;2023-01-16T15:53:01;5.90;99.90
2112;DHT22;1062;52.538;13.400;2023-01-16T15:55:39;5.90;99.90
2112;DHT22;1062;52.538;13.400;2023-01-16T15:58:14;5.90;99.90
2112;DHT22;1062;52.538;13.400;2023-01-16T16:00:41;5.80;99.90
2112;DHT22;1062;52.538;13.400;2023-01-16T16:03:19;5.80;99.90
2112;DHT22;1062;52.538;13.400;2023-01-16T16:05:53;5.80;99.90
2112;DHT22;1062;52.538;13.400;2023-01-16T16:08:24;5.80;99.90
2112;DHT22;1062;52.538;13.400;2023-01-16T16:10:52;5.80;99.90
2112;DHT22;1062;52.538;13.400;2023-01-16T16:13:37;5.80;99.90
2112;DHT22;1062;52.538;13.400;2023-01-16T16:16:18;5.70;99.90
2112;DHT22;1062;52.538;13.400;2023-01-16T16:19:04;5.70;99.90
2112;DHT22;1062;52.538;13.400;2023-01-16T16:21:49;5.70;99.90
2112;DHT22;1062;52.538;13.400;2023-01-16T16:24:35;5.70;99.90
2112;DHT22;1062;52.538;13.400;2023-01-16T16:27:11;5.60;99.90
2112;DHT22;1062;52.538;13.400;2023-01-16T16:29:38;5.60;99.90
2112;DHT22;1062;52.538;13.400;2023-01-16T16:32:05;5.60;99.90
2112;DHT22;1062;52.538;13.400;2023-01-16T16:34:36;5.50;99.90
2112;DHT22;1062;52.538;13.400;2023-01-16T16:37:03;5.60;99.90
2112;DHT22;1062;52.538;13.400;2023-01-16T16:45:32;5.50;99.90
2112;DHT22;1062;52.538;13.400;2023-01-16T16:48:19;5.50;99.90
2112;DHT22;1062;52.538;13.400;2023-01-16T16:50:45;5.50;99.90
2112;DHT22;1062;52.538;13.400;2023-01-16T16:53:16;5.50;99.90
2112;DHT22;1062;52.538;13.400;2023-01-16T16:55:49;5.50;99.90
2112;DHT22;1062;52.538;13.400;2023-01-16T16:58:25;5.50;99.90
2112;DHT22;1062;52.538;13.400;2023-01-16T17:00:52;5.40;99.90
2112;DHT22;1062;52.538;13.400;2023-01-16T17:03:21;5.40;99.90
2112;DHT22;1062;52.538;13.400;2023-01-16T17:05:47;5.40;99.90
2112;DHT22;1062;52.538;13.400;2023-01-16T17:08:27;5.40;99.90
2112;DHT22;1062;52.538;13.400;2023-01-16T17:10:56;5.30;99.90
2112;DHT22;1062;52.538;13.400;2023-01-16T17:13:23;5.30;99.90
2112;DHT22;1062;52.538;13.400;2023-01-16T17:15:54;5.30;99.90
2112;DHT22;1062;52.538;13.400;2023-01-16T17:18:23;5.30;99.90
2112;DHT22;1062;52.538;13.400;2023-01-16T17:20:49;5.20;99.90
2112;DHT22;1062;52.538;13.400;2023-01-16T17:23:17;5.20;99.90
2112;DHT22;1062;52.538;13.400;2023-01-16T17:25:43;5.20;99.90
2112;DHT22;1062;52.538;13.400;2023-01-16T17:28:10;5.20;99.90
2112;DHT22;1062;52.538;13.400;2023-01-16T17:30:36;5.20;99.90
2112;DHT22;1062;52.538;13.400;2023-01-16T17:33:25;5.20;99.90
2112;DHT22;1062;52.538;13.400;2023-01-16T17:35:52;5.20;99.90
2112;DHT22;1062;52.538;13.400;2023-01-16T17:38:44;5.10;99.90
2112;DHT22;1062;52.538;13.400;2023-01-16T17:41:15;5.00;99.90
2112;DHT22;1062;52.538;13.400;2023-01-16T17:43:42;5.00;99.90
2112;DHT22;1062;52.538;13.400;2023-01-16T17:46:26;5.00;99.90
2112;DHT22;1062;52.538;13.400;2023-01-16T17:48:52;5.00;99.90
2112;DHT22;1062;52.538;13.400;2023-01-16T17:51:17;5.00;99.90
2112;DHT22;1062;52.538;13.400;2023-01-16T17:53:48;5.00;99.90
2112;DHT22;1062;52.538;13.400;2023-01-16T17:56:14;5.10;99.90
2112;DHT22;1062;52.538;13.400;2023-01-16T17:58:41;5.10;99.90
2112;DHT22;1062;52.538;13.400;2023-01-16T18:01:12;5.10;99.90
2112;DHT22;1062;52.538;13.400;2023-01-16T18:03:38;5.20;99.90
2112;DHT22;1062;52.538;13.400;2023-01-16T18:06:06;5.20;99.90
2112;DHT22;1062;52.538;13.400;2023-01-16T18:08:33;5.20;99.90
2112;DHT22;1062;52.538;13.400;2023-01-16T18:11:00;5.20;99.90
2112;DHT22;1062;52.538;13.400;2023-01-16T18:13:46;5.30;99.90
2112;DHT22;1062;52.538;13.400;2023-01-16T18:16:31;5.30;99.90
2112;DHT22;1062;52.538;13.400;2023-01-16T18:19:15;5.30;99.90
2112;DHT22;1062;52.538;13.400;2023-01-16T18:21:40;5.30;99.90
2112;DHT22;1062;52.538;13.400;2023-01-16T18:24:24;5.30;99.90
2112;DHT22;1062;52.538;13.400;2023-01-16T18:26:50;5.30;99.90
2112;DHT22;1062;52.538;13.400;2023-01-16T18:29:15;5.30;99.90
2112;DHT22;1062;52.538;13.400;2023-01-16T18:31:41;5.30;99.90
2112;DHT22;1062;52.538;13.400;2023-01-16T18:34:26;5.30;99.90
2112;DHT22;1062;52.538;13.400;2023-01-16T18:36:52;5.30;99.90
2112;DHT22;1062;52.538;13.400;2023-01-16T18:39:18;5.30;99.90
2112;DHT22;1062;52.538;13.400;2023-01-16T18:42:02;5.30;99.90
2112;DHT22;1062;52.538;13.400;2023-01-16T18:44:46;5.30;99.90
2112;DHT22;1062;52.538;13.400;2023-01-16T18:47:30;5.30;99.90
2112;DHT22;1062;52.538;13.400;2023-01-16T18:50:14;5.30;99.90
2112;DHT22;1062;52.538;13.400;2023-01-16T18:52:58;5.20;99.90
2112;DHT22;1062;52.538;13.400;2023-01-16T18:55:42;5.20;99.90
2112;DHT22;1062;52.538;13.400;2023-01-16T18:58:26;5.20;99.90
2112;DHT22;1062;52.538;13.400;2023-01-16T19:01:13;5.20;99.90
2112;DHT22;1062;52.538;13.400;2023-01-16T19:03:57;5.30;99.90
2112;DHT22;1062;52.538;13.400;2023-01-16T19:06:23;5.20;99.90
2112;DHT22;1062;52.538;13.400;2023-01-16T19:08:49;5.20;99.90
2112;DHT22;1062;52.538;13.400;2023-01-16T19:11:19;5.20;99.90
2112;DHT22;1062;52.538;13.400;2023-01-16T19:13:46;5.20;99.90
2112;DHT22;1062;52.538;13.400;2023-01-16T19:16:13;5.20;99.90
2112;DHT22;1062;52.538;13.400;2023-01-16T19:18:57;5.20;99.90
2112;DHT22;1062;52.538;13.400;2023-01-16T19:21:23;5.20;99.90